createdAt,value
2023-01-29T00:01:17.861Z,8.90
2023-01-29T00:16:20.567Z,9.50
2023-01-29T00:31:25.523Z,8.00
2023-01-29T00:46:28.422Z,6.70
2023-01-29T01:01:49.907Z,5.20
2023-01-29T01:16:52.592Z,4.20
2023-01-29T01:31:55.443Z,6.20
2023-01-29T01:47:01.568Z,5.10
2023-01-29T02:02:25.117Z,4.50
2023-01-29T02:17:28.311Z,4.40
2023-01-29T02:32:54.228Z,4.80
2023-01-29T02:48:00.216Z,4.30
2023-01-29T03:03:12.349Z,5.80
2023-01-29T03:18:22.032Z,5.00
2023-01-29T03:33:49.008Z,4.20
2023-01-29T03:49:20.659Z,5.10
2023-01-29T04:04:40.888Z,6.70
2023-01-29T04:19:44.380Z,8.10
2023-01-29T04:35:21.793Z,5.00
2023-01-29T04:50:36.579Z,5.20
2023-01-29T05:05:57.386Z,4.00
2023-01-29T05:21:05.940Z,5.30
2023-01-29T05:36:09.319Z,3.90
2023-01-29T05:51:11.787Z,2.50
2023-01-29T06:06:15.158Z,4.40
2023-01-29T06:21:19.943Z,4.90
2023-01-29T06:36:37.484Z,4.20
2023-01-29T06:51:40.247Z,5.30
2023-01-29T07:06:44.294Z,5.70
2023-01-29T07:21:47.281Z,4.80
2023-01-29T07:36:54.018Z,7.00
2023-01-29T07:51:56.908Z,6.00
2023-01-29T08:06:59.835Z,5.80
2023-01-29T08:22:04.950Z,7.00
2023-01-29T08:37:07.836Z,8.50
2023-01-29T08:52:10.701Z,7.80
2023-01-29T09:07:13.675Z,8.80
2023-01-29T09:22:16.524Z,7.50
2023-01-29T09:37:22.489Z,9.30
2023-01-29T09:52:38.483Z,8.60
2023-01-29T10:08:04.785Z,6.60
2023-01-29T10:23:16.819Z,6.00
2023-01-29T10:38:42.529Z,9.20
2023-01-29T10:54:15.454Z,10.30
2023-01-29T11:24:34.330Z,7.40
2023-01-29T11:39:46.757Z,9.40
2023-01-29T11:55:26.278Z,4.90
2023-01-29T12:10:40.574Z,9.40
2023-01-29T12:25:58.294Z,8.90
2023-01-29T12:41:28.017Z,8.70
2023-01-29T12:56:46.173Z,10.30
2023-01-29T13:11:55.268Z,11.40
2023-01-29T13:26:58.405Z,7.80
2023-01-29T13:42:16.453Z,12.00
2023-01-29T13:57:44.341Z,13.00
2023-01-29T14:13:09.266Z,12.00
2023-01-29T14:28:30.330Z,9.80
2023-01-29T14:43:33.999Z,8.50
2023-01-29T14:58:46.769Z,7.10
2023-01-29T15:13:58.444Z,10.60
2023-01-29T15:29:04.695Z,10.70
2023-01-29T15:44:22.913Z,7.10
2023-01-29T15:59:34.631Z,11.60
2023-01-29T16:14:39.117Z,10.20
2023-01-29T16:29:42.104Z,10.50
2023-01-29T16:45:22.921Z,10.20
2023-01-29T17:00:31.774Z,10.40
2023-01-29T17:15:44.821Z,10.00
2023-01-29T17:31:00.215Z,11.80
2023-01-29T17:46:14.794Z,11.00
2023-01-29T18:01:17.550Z,10.60
2023-01-29T18:16:24.206Z,9.70
2023-01-29T18:31:27.721Z,12.10
2023-01-29T18:46:30.956Z,10.10
2023-01-29T19:01:35.363Z,7.80
2023-01-29T19:16:38.664Z,8.90
2023-01-29T19:31:42.269Z,8.30
2023-01-29T19:46:46.280Z,6.90
2023-01-29T20:01:48.996Z,7.80
2023-01-29T20:16:51.948Z,9.00
2023-01-29T20:31:55.059Z,6.70
2023-01-29T20:47:01.491Z,5.70
2023-01-29T21:02:04.808Z,5.30
2023-01-29T21:17:08.190Z,6.90
2023-01-29T21:32:11.143Z,5.80
2023-01-29T21:47:14.139Z,4.00
2023-01-29T22:02:31.766Z,3.20
2023-01-29T22:17:34.865Z,7.00
2023-01-29T22:32:37.463Z,6.50
2023-01-29T22:47:54.894Z,6.90
2023-01-29T23:02:57.749Z,5.70
2023-01-29T23:18:00.457Z,4.90
2023-01-29T23:33:04.016Z,5.90
2023-01-29T23:48:06.688Z,6.00
